sensor_id;sensor_type;location;lat;lon;timestamp;temperature;humidity
63202;DHT22;49296;48.188;11.566;2022-10-17T00:00:05;17.26;70.55
63202;DHT22;49296;48.188;11.566;2022-10-17T00:02:32;17.29;70.51
63202;DHT22;49296;48.188;11.566;2022-10-17T00:04:58;17.30;70.50
63202;DHT22;49296;48.188;11.566;2022-10-17T00:07:25;17.23;70.51
63202;DHT22;49296;48.188;11.566;2022-10-17T00:09:51;17.18;70.68
63202;DHT22;49296;48.188;11.566;2022-10-17T00:12:18;17.16;70.51
63202;DHT22;49296;48.188;11.566;2022-10-17T00:14:44;17.08;70.55
63202;DHT22;49296;48.188;11.566;2022-10-17T00:17:12;17.07;70.63
63202;DHT22;49296;48.188;11.566;2022-10-17T00:19:39;17.01;70.60
63202;DHT22;49296;48.188;11.566;2022-10-17T00:22:05;16.89;71.02
63202;DHT22;49296;48.188;11.566;2022-10-17T00:24:32;16.84;71.18
63202;DHT22;49296;48.188;11.566;2022-10-17T00:26:58;16.83;71.39
63202;DHT22;49296;48.188;11.566;2022-10-17T00:29:25;16.81;71.37
63202;DHT22;49296;48.188;11.566;2022-10-17T00:31:53;16.83;71.25
63202;DHT22;49296;48.188;11.566;2022-10-17T00:34:21;16.84;71.36
63202;DHT22;49296;48.188;11.566;2022-10-17T00:36:47;16.84;71.29
63202;DHT22;49296;48.188;11.566;2022-10-17T00:39:14;16.81;71.47
63202;DHT22;49296;48.188;11.566;2022-10-17T00:41:40;16.85;71.26
63202;DHT22;49296;48.188;11.566;2022-10-17T00:46:48;16.81;71.15
63202;DHT22;49296;48.188;11.566;2022-10-17T00:49:14;16.77;71.26
63202;DHT22;49296;48.188;11.566;2022-10-17T00:51:43;16.77;71.17
63202;DHT22;49296;48.188;11.566;2022-10-17T00:54:10;16.67;71.13
63202;DHT22;49296;48.188;11.566;2022-10-17T00:56:38;16.56;71.34
63202;DHT22;49296;48.188;11.566;2022-10-17T00:59:04;16.48;71.77
63202;DHT22;49296;48.188;11.566;2022-10-17T01:01:32;16.41;72.09
63202;DHT22;49296;48.188;11.566;2022-10-17T01:03:59;16.43;72.04
63202;DHT22;49296;48.188;11.566;2022-10-17T01:06:25;16.42;72.04
63202;DHT22;49296;48.188;11.566;2022-10-17T01:08:53;16.39;72.20
63202;DHT22;49296;48.188;11.566;2022-10-17T01:11:22;16.39;72.30
63202;DHT22;49296;48.188;11.566;2022-10-17T01:13:55;16.36;72.02
63202;DHT22;49296;48.188;11.566;2022-10-17T01:16:25;16.35;71.97
63202;DHT22;49296;48.188;11.566;2022-10-17T01:18:55;16.30;71.99
63202;DHT22;49296;48.188;11.566;2022-10-17T01:21:25;16.21;72.14
63202;DHT22;49296;48.188;11.566;2022-10-17T01:24:13;16.15;72.30
63202;DHT22;49296;48.188;11.566;2022-10-17T01:26:58;16.14;72.36
63202;DHT22;49296;48.188;11.566;2022-10-17T01:29:37;16.16;72.19
63202;DHT22;49296;48.188;11.566;2022-10-17T01:32:11;16.19;72.03
63202;DHT22;49296;48.188;11.566;2022-10-17T01:34:40;16.25;71.87
63202;DHT22;49296;48.188;11.566;2022-10-17T01:37:11;16.28;71.56
63202;DHT22;49296;48.188;11.566;2022-10-17T01:39:41;16.30;71.37
63202;DHT22;49296;48.188;11.566;2022-10-17T01:42:11;16.33;71.17
63202;DHT22;49296;48.188;11.566;2022-10-17T01:44:40;16.30;71.09
63202;DHT22;49296;48.188;11.566;2022-10-17T01:47:08;16.29;71.11
63202;DHT22;49296;48.188;11.566;2022-10-17T01:49:36;16.28;71.10
63202;DHT22;49296;48.188;11.566;2022-10-17T01:52:05;16.29;71.02
63202;DHT22;49296;48.188;11.566;2022-10-17T01:54:36;16.28;71.06
63202;DHT22;49296;48.188;11.566;2022-10-17T01:57:04;16.24;71.03
63202;DHT22;49296;48.188;11.566;2022-10-17T01:59:34;16.18;70.90
63202;DHT22;49296;48.188;11.566;2022-10-17T02:02:01;16.02;71.33
63202;DHT22;49296;48.188;11.566;2022-10-17T02:04:28;16.01;71.40
63202;DHT22;49296;48.188;11.566;2022-10-17T02:06:56;15.98;71.33
63202;DHT22;49296;48.188;11.566;2022-10-17T02:09:23;15.90;71.52
63202;DHT22;49296;48.188;11.566;2022-10-17T02:11:51;15.88;71.42
63202;DHT22;49296;48.188;11.566;2022-10-17T02:14:22;15.86;71.55
63202;DHT22;49296;48.188;11.566;2022-10-17T02:16:52;15.87;71.54
63202;DHT22;49296;48.188;11.566;2022-10-17T02:19:26;15.88;71.46
63202;DHT22;49296;48.188;11.566;2022-10-17T02:21:56;15.88;71.51
63202;DHT22;49296;48.188;11.566;2022-10-17T02:24:27;15.87;71.34
63202;DHT22;49296;48.188;11.566;2022-10-17T02:26:55;15.91;71.24
63202;DHT22;49296;48.188;11.566;2022-10-17T02:29:24;15.80;71.37
63202;DHT22;49296;48.188;11.566;2022-10-17T02:31:53;15.83;71.23
63202;DHT22;49296;48.188;11.566;2022-10-17T02:34:21;15.83;71.25
63202;DHT22;49296;48.188;11.566;2022-10-17T02:36:51;15.81;71.28
63202;DHT22;49296;48.188;11.566;2022-10-17T02:39:20;15.80;71.26
63202;DHT22;49296;48.188;11.566;2022-10-17T02:41:47;15.74;71.30
63202;DHT22;49296;48.188;11.566;2022-10-17T02:44:14;15.71;71.42
63202;DHT22;49296;48.188;11.566;2022-10-17T02:46:41;15.74;71.29
63202;DHT22;49296;48.188;11.566;2022-10-17T02:49:09;15.77;71.14
63202;DHT22;49296;48.188;11.566;2022-10-17T02:51:41;15.77;71.15
63202;DHT22;49296;48.188;11.566;2022-10-17T02:54:08;15.79;71.08
63202;DHT22;49296;48.188;11.566;2022-10-17T02:56:40;15.83;71.04
63202;DHT22;49296;48.188;11.566;2022-10-17T02:59:08;15.88;70.93
63202;DHT22;49296;48.188;11.566;2022-10-17T03:01:37;15.87;70.87
63202;DHT22;49296;48.188;11.566;2022-10-17T03:04:04;15.83;70.91
63202;DHT22;49296;48.188;11.566;2022-10-17T03:06:31;15.81;70.88
63202;DHT22;49296;48.188;11.566;2022-10-17T03:08:57;15.77;70.93
63202;DHT22;49296;48.188;11.566;2022-10-17T03:11:24;15.80;70.86
63202;DHT22;49296;48.188;11.566;2022-10-17T03:13:52;15.79;70.83
63202;DHT22;49296;48.188;11.566;2022-10-17T03:16:18;15.77;70.88
63202;DHT22;49296;48.188;11.566;2022-10-17T03:18:44;15.79;70.88
63202;DHT22;49296;48.188;11.566;2022-10-17T03:21:11;15.74;70.76
63202;DHT22;49296;48.188;11.566;2022-10-17T03:23:37;15.74;70.69
63202;DHT22;49296;48.188;11.566;2022-10-17T03:26:04;15.76;70.70
63202;DHT22;49296;48.188;11.566;2022-10-17T03:28:30;15.67;70.88
63202;DHT22;49296;48.188;11.566;2022-10-17T03:30:58;15.67;71.01
63202;DHT22;49296;48.188;11.566;2022-10-17T03:33:25;15.63;70.96
63202;DHT22;49296;48.188;11.566;2022-10-17T03:35:52;15.63;70.70
63202;DHT22;49296;48.188;11.566;2022-10-17T03:38:18;15.56;70.88
63202;DHT22;49296;48.188;11.566;2022-10-17T03:40:44;15.57;71.04
63202;DHT22;49296;48.188;11.566;2022-10-17T03:43:19;15.57;71.00
63202;DHT22;49296;48.188;11.566;2022-10-17T03:45:45;15.49;71.17
63202;DHT22;49296;48.188;11.566;2022-10-17T03:48:13;15.46;71.13
63202;DHT22;49296;48.188;11.566;2022-10-17T03:50:40;15.47;71.00
63202;DHT22;49296;48.188;11.566;2022-10-17T03:53:06;15.47;70.98
63202;DHT22;49296;48.188;11.566;2022-10-17T03:55:33;15.42;71.25
63202;DHT22;49296;48.188;11.566;2022-10-17T03:57:59;15.34;71.60
63202;DHT22;49296;48.188;11.566;2022-10-17T04:00:25;15.36;72.59
63202;DHT22;49296;48.188;11.566;2022-10-17T04:02:52;15.40;72.00
63202;DHT22;49296;48.188;11.566;2022-10-17T04:05:20;15.40;71.76
63202;DHT22;49296;48.188;11.566;2022-10-17T04:07:46;15.42;71.82
63202;DHT22;49296;48.188;11.566;2022-10-17T04:10:13;15.42;71.56
63202;DHT22;49296;48.188;11.566;2022-10-17T04:12:39;15.35;71.43
63202;DHT22;49296;48.188;11.566;2022-10-17T04:15:06;15.36;71.64
63202;DHT22;49296;48.188;11.566;2022-10-17T04:17:32;15.38;71.58
63202;DHT22;49296;48.188;11.566;2022-10-17T04:19:59;15.27;71.59
63202;DHT22;49296;48.188;11.566;2022-10-17T04:22:27;15.28;71.43
63202;DHT22;49296;48.188;11.566;2022-10-17T04:24:53;15.32;71.20
63202;DHT22;49296;48.188;11.566;2022-10-17T04:27:20;15.28;71.23
63202;DHT22;49296;48.188;11.566;2022-10-17T04:29:46;15.34;71.33
63202;DHT22;49296;48.188;11.566;2022-10-17T04:32:13;15.32;71.30
63202;DHT22;49296;48.188;11.566;2022-10-17T04:34:39;15.32;71.07
63202;DHT22;49296;48.188;11.566;2022-10-17T04:37:05;15.24;71.05
63202;DHT22;49296;48.188;11.566;2022-10-17T04:39:33;15.18;71.13
63202;DHT22;49296;48.188;11.566;2022-10-17T04:42:00;15.15;71.21
63202;DHT22;49296;48.188;11.566;2022-10-17T04:44:26;15.17;71.23
63202;DHT22;49296;48.188;11.566;2022-10-17T04:46:55;15.12;71.37
63202;DHT22;49296;48.188;11.566;2022-10-17T04:49:21;15.08;71.43
63202;DHT22;49296;48.188;11.566;2022-10-17T04:51:48;15.07;71.39
63202;DHT22;49296;48.188;11.566;2022-10-17T04:54:14;15.05;71.38
63202;DHT22;49296;48.188;11.566;2022-10-17T04:56:42;15.04;71.30
63202;DHT22;49296;48.188;11.566;2022-10-17T04:59:09;15.02;71.60
63202;DHT22;49296;48.188;11.566;2022-10-17T05:01:35;15.02;71.60
63202;DHT22;49296;48.188;11.566;2022-10-17T05:04:02;14.98;71.61
63202;DHT22;49296;48.188;11.566;2022-10-17T05:06:28;14.94;71.56
63202;DHT22;49296;48.188;11.566;2022-10-17T05:08:56;15.00;71.39
63202;DHT22;49296;48.188;11.566;2022-10-17T05:11:23;14.97;71.31
63202;DHT22;49296;48.188;11.566;2022-10-17T05:13:52;14.88;71.56
63202;DHT22;49296;48.188;11.566;2022-10-17T05:16:18;14.94;71.18
63202;DHT22;49296;48.188;11.566;2022-10-17T05:18:46;14.90;71.19
63202;DHT22;49296;48.188;11.566;2022-10-17T05:21:13;14.91;71.19
63202;DHT22;49296;48.188;11.566;2022-10-17T05:23:39;14.90;71.33
63202;DHT22;49296;48.188;11.566;2022-10-17T05:26:05;14.83;71.44
63202;DHT22;49296;48.188;11.566;2022-10-17T05:28:32;14.85;71.35
63202;DHT22;49296;48.188;11.566;2022-10-17T05:31:02;14.85;71.34
63202;DHT22;49296;48.188;11.566;2022-10-17T05:33:29;14.83;71.51
63202;DHT22;49296;48.188;11.566;2022-10-17T05:35:56;14.83;71.57
63202;DHT22;49296;48.188;11.566;2022-10-17T05:38:23;14.76;71.89
63202;DHT22;49296;48.188;11.566;2022-10-17T05:40:49;14.79;71.83
63202;DHT22;49296;48.188;11.566;2022-10-17T05:43:15;14.83;71.37
63202;DHT22;49296;48.188;11.566;2022-10-17T05:45:42;14.83;71.45
63202;DHT22;49296;48.188;11.566;2022-10-17T05:48:10;14.84;71.25
63202;DHT22;49296;48.188;11.566;2022-10-17T05:50:36;14.81;71.25
63202;DHT22;49296;48.188;11.566;2022-10-17T05:53:03;14.74;71.25
63202;DHT22;49296;48.188;11.566;2022-10-17T05:55:29;14.76;71.10
63202;DHT22;49296;48.188;11.566;2022-10-17T05:57:55;14.74;71.34
63202;DHT22;49296;48.188;11.566;2022-10-17T06:00:22;14.79;71.47
63202;DHT22;49296;48.188;11.566;2022-10-17T06:02:49;14.83;71.40
63202;DHT22;49296;48.188;11.566;2022-10-17T06:05:17;14.73;71.48
63202;DHT22;49296;48.188;11.566;2022-10-17T06:07:43;14.65;71.89
63202;DHT22;49296;48.188;11.566;2022-10-17T06:10:10;14.74;71.55
63202;DHT22;49296;48.188;11.566;2022-10-17T06:12:39;14.76;71.66
63202;DHT22;49296;48.188;11.566;2022-10-17T06:15:06;14.76;71.64
63202;DHT22;49296;48.188;11.566;2022-10-17T06:17:32;14.77;71.84
63202;DHT22;49296;48.188;11.566;2022-10-17T06:19:59;14.77;71.99
63202;DHT22;49296;48.188;11.566;2022-10-17T06:22:27;14.76;71.96
63202;DHT22;49296;48.188;11.566;2022-10-17T06:24:53;14.81;71.99
63202;DHT22;49296;48.188;11.566;2022-10-17T06:27:20;14.84;71.86
63202;DHT22;49296;48.188;11.566;2022-10-17T06:29:46;14.88;71.75
63202;DHT22;49296;48.188;11.566;2022-10-17T06:32:13;14.91;71.78
63202;DHT22;49296;48.188;11.566;2022-10-17T06:34:39;14.95;71.66
63202;DHT22;49296;48.188;11.566;2022-10-17T06:37:06;14.95;71.58
63202;DHT22;49296;48.188;11.566;2022-10-17T06:39:34;14.97;71.47
63202;DHT22;49296;48.188;11.566;2022-10-17T06:42:01;15.00;71.37
63202;DHT22;49296;48.188;11.566;2022-10-17T06:44:28;15.02;71.39
63202;DHT22;49296;48.188;11.566;2022-10-17T06:46:56;15.07;71.43
63202;DHT22;49296;48.188;11.566;2022-10-17T06:49:22;15.12;71.16
63202;DHT22;49296;48.188;11.566;2022-10-17T06:51:49;15.17;70.79
63202;DHT22;49296;48.188;11.566;2022-10-17T06:54:16;15.17;70.70
63202;DHT22;49296;48.188;11.566;2022-10-17T06:56:43;15.21;70.60
63202;DHT22;49296;48.188;11.566;2022-10-17T06:59:10;15.27;70.26
63202;DHT22;49296;48.188;11.566;2022-10-17T07:01:36;15.28;70.36
63202;DHT22;49296;48.188;11.566;2022-10-17T07:04:03;15.29;70.29
63202;DHT22;49296;48.188;11.566;2022-10-17T07:06:36;15.36;70.11
63202;DHT22;49296;48.188;11.566;2022-10-17T07:09:03;15.40;69.88
63202;DHT22;49296;48.188;11.566;2022-10-17T07:11:31;15.46;69.67
63202;DHT22;49296;48.188;11.566;2022-10-17T07:13:59;15.50;69.73
63202;DHT22;49296;48.188;11.566;2022-10-17T07:16:25;15.60;69.56
63202;DHT22;49296;48.188;11.566;2022-10-17T07:18:52;15.63;69.44
63202;DHT22;49296;48.188;11.566;2022-10-17T07:21:19;15.56;69.81
63202;DHT22;49296;48.188;11.566;2022-10-17T07:23:46;15.69;69.26
63202;DHT22;49296;48.188;11.566;2022-10-17T07:26:13;15.62;69.43
63202;DHT22;49296;48.188;11.566;2022-10-17T07:28:42;15.73;68.51
63202;DHT22;49296;48.188;11.566;2022-10-17T07:31:10;15.83;68.62
63202;DHT22;49296;48.188;11.566;2022-10-17T07:33:37;15.83;68.50
63202;DHT22;49296;48.188;11.566;2022-10-17T07:36:04;15.87;68.63
63202;DHT22;49296;48.188;11.566;2022-10-17T07:38:30;15.84;68.84
63202;DHT22;49296;48.188;11.566;2022-10-17T07:40:58;15.90;68.93
63202;DHT22;49296;48.188;11.566;2022-10-17T07:43:25;15.91;69.15
63202;DHT22;49296;48.188;11.566;2022-10-17T07:45:52;16.02;68.85
63202;DHT22;49296;48.188;11.566;2022-10-17T07:48:20;16.07;68.04
63202;DHT22;49296;48.188;11.566;2022-10-17T07:50:47;15.96;67.38
63202;DHT22;49296;48.188;11.566;2022-10-17T07:53:13;15.97;67.17
63202;DHT22;49296;48.188;11.566;2022-10-17T07:55:40;16.00;66.32
63202;DHT22;49296;48.188;11.566;2022-10-17T07:58:07;15.94;66.02
63202;DHT22;49296;48.188;11.566;2022-10-17T08:00:34;16.11;65.72
63202;DHT22;49296;48.188;11.566;2022-10-17T08:03:00;16.22;65.22
63202;DHT22;49296;48.188;11.566;2022-10-17T08:05:28;16.30;64.99
63202;DHT22;49296;48.188;11.566;2022-10-17T08:07:55;16.46;64.82
63202;DHT22;49296;48.188;11.566;2022-10-17T08:10:22;16.53;64.73
63202;DHT22;49296;48.188;11.566;2022-10-17T08:12:51;16.50;64.39
63202;DHT22;49296;48.188;11.566;2022-10-17T08:15:18;16.55;64.19
63202;DHT22;49296;48.188;11.566;2022-10-17T08:17:44;16.56;64.24
63202;DHT22;49296;48.188;11.566;2022-10-17T08:20:11;16.53;64.64
63202;DHT22;49296;48.188;11.566;2022-10-17T08:22:39;16.61;64.33
63202;DHT22;49296;48.188;11.566;2022-10-17T08:25:06;16.63;64.21
63202;DHT22;49296;48.188;11.566;2022-10-17T08:27:32;16.67;64.76
63202;DHT22;49296;48.188;11.566;2022-10-17T08:29:59;16.76;64.34
63202;DHT22;49296;48.188;11.566;2022-10-17T08:32:26;16.76;64.63
63202;DHT22;49296;48.188;11.566;2022-10-17T08:34:53;16.92;64.17
63202;DHT22;49296;48.188;11.566;2022-10-17T08:37:20;17.01;64.12
63202;DHT22;49296;48.188;11.566;2022-10-17T08:39:48;17.07;63.98
63202;DHT22;49296;48.188;11.566;2022-10-17T08:45:01;17.01;64.78
63202;DHT22;49296;48.188;11.566;2022-10-17T08:47:33;17.11;65.06
63202;DHT22;49296;48.188;11.566;2022-10-17T08:50:01;17.04;64.68
63202;DHT22;49296;48.188;11.566;2022-10-17T08:52:29;17.04;64.68
63202;DHT22;49296;48.188;11.566;2022-10-17T08:54:58;17.14;64.77
63202;DHT22;49296;48.188;11.566;2022-10-17T08:57:25;17.12;64.85
63202;DHT22;49296;48.188;11.566;2022-10-17T08:59:52;17.18;64.86
63202;DHT22;49296;48.188;11.566;2022-10-17T09:05:17;17.29;64.58
63202;DHT22;49296;48.188;11.566;2022-10-17T09:07:47;17.42;64.33
63202;DHT22;49296;48.188;11.566;2022-10-17T09:10:17;17.43;64.46
63202;DHT22;49296;48.188;11.566;2022-10-17T09:12:48;17.32;64.64
63202;DHT22;49296;48.188;11.566;2022-10-17T09:15:27;17.38;65.20
63202;DHT22;49296;48.188;11.566;2022-10-17T09:17:56;17.40;64.53
63202;DHT22;49296;48.188;11.566;2022-10-17T09:20:23;17.40;64.77
63202;DHT22;49296;48.188;11.566;2022-10-17T09:22:54;17.46;65.04
63202;DHT22;49296;48.188;11.566;2022-10-17T09:25:22;17.57;64.41
63202;DHT22;49296;48.188;11.566;2022-10-17T09:27:50;17.62;64.43
63202;DHT22;49296;48.188;11.566;2022-10-17T09:32:59;17.74;64.17
63202;DHT22;49296;48.188;11.566;2022-10-17T09:35:26;17.78;63.41
63202;DHT22;49296;48.188;11.566;2022-10-17T09:37:52;17.88;63.52
63202;DHT22;49296;48.188;11.566;2022-10-17T09:40:23;17.92;63.54
63202;DHT22;49296;48.188;11.566;2022-10-17T09:42:51;17.88;62.51
63202;DHT22;49296;48.188;11.566;2022-10-17T09:45:19;17.95;62.61
63202;DHT22;49296;48.188;11.566;2022-10-17T09:47:50;18.05;62.13
63202;DHT22;49296;48.188;11.566;2022-10-17T09:50:20;18.11;61.87
63202;DHT22;49296;48.188;11.566;2022-10-17T09:52:48;18.16;62.96
63202;DHT22;49296;48.188;11.566;2022-10-17T09:55:19;18.24;62.48
63202;DHT22;49296;48.188;11.566;2022-10-17T09:57:50;18.26;61.92
63202;DHT22;49296;48.188;11.566;2022-10-17T10:00:20;18.24;61.76
63202;DHT22;49296;48.188;11.566;2022-10-17T10:02:47;18.32;61.63
63202;DHT22;49296;48.188;11.566;2022-10-17T10:05:14;18.37;61.29
63202;DHT22;49296;48.188;11.566;2022-10-17T10:07:41;18.47;61.69
63202;DHT22;49296;48.188;11.566;2022-10-17T10:10:21;18.49;62.15
63202;DHT22;49296;48.188;11.566;2022-10-17T10:13:00;18.54;62.06
63202;DHT22;49296;48.188;11.566;2022-10-17T10:15:32;18.61;61.14
63202;DHT22;49296;48.188;11.566;2022-10-17T10:17:59;18.71;60.71
63202;DHT22;49296;48.188;11.566;2022-10-17T10:20:28;18.77;60.56
63202;DHT22;49296;48.188;11.566;2022-10-17T10:23:10;18.77;60.51
63202;DHT22;49296;48.188;11.566;2022-10-17T10:25:54;18.81;60.95
63202;DHT22;49296;48.188;11.566;2022-10-17T10:28:22;18.85;61.37
63202;DHT22;49296;48.188;11.566;2022-10-17T10:30:51;18.88;61.64
63202;DHT22;49296;48.188;11.566;2022-10-17T10:33:18;19.02;60.03
63202;DHT22;49296;48.188;11.566;2022-10-17T10:35:51;19.02;60.24
63202;DHT22;49296;48.188;11.566;2022-10-17T10:38:18;19.08;59.95
63202;DHT22;49296;48.188;11.566;2022-10-17T10:40:46;19.09;61.34
63202;DHT22;49296;48.188;11.566;2022-10-17T10:43:20;19.16;59.70
63202;DHT22;49296;48.188;11.566;2022-10-17T10:45:48;19.15;60.79
63202;DHT22;49296;48.188;11.566;2022-10-17T10:48:20;19.23;59.95
63202;DHT22;49296;48.188;11.566;2022-10-17T10:50:48;19.29;60.04
63202;DHT22;49296;48.188;11.566;2022-10-17T10:53:21;19.39;59.55
63202;DHT22;49296;48.188;11.566;2022-10-17T10:55:51;19.46;58.91
63202;DHT22;49296;48.188;11.566;2022-10-17T10:58:22;19.46;58.26
63202;DHT22;49296;48.188;11.566;2022-10-17T11:00:50;19.57;58.46
63202;DHT22;49296;48.188;11.566;2022-10-17T11:03:18;19.66;59.16
63202;DHT22;49296;48.188;11.566;2022-10-17T11:05:48;19.74;58.34
63202;DHT22;49296;48.188;11.566;2022-10-17T11:08:17;19.75;59.06
63202;DHT22;49296;48.188;11.566;2022-10-17T11:10:54;19.86;59.32
63202;DHT22;49296;48.188;11.566;2022-10-17T11:13:23;19.86;58.54
63202;DHT22;49296;48.188;11.566;2022-10-17T11:15:54;19.94;58.30
63202;DHT22;49296;48.188;11.566;2022-10-17T11:18:25;20.01;58.71
63202;DHT22;49296;48.188;11.566;2022-10-17T11:20:54;20.05;58.66
63202;DHT22;49296;48.188;11.566;2022-10-17T11:23:23;20.09;59.76
63202;DHT22;49296;48.188;11.566;2022-10-17T11:25:53;20.16;59.32
63202;DHT22;49296;48.188;11.566;2022-10-17T11:28:20;20.23;57.05
63202;DHT22;49296;48.188;11.566;2022-10-17T11:30:49;20.34;56.07
63202;DHT22;49296;48.188;11.566;2022-10-17T11:33:17;20.40;56.07
63202;DHT22;49296;48.188;11.566;2022-10-17T11:35:46;20.48;55.66
63202;DHT22;49296;48.188;11.566;2022-10-17T11:38:16;20.56;56.55
63202;DHT22;49296;48.188;11.566;2022-10-17T11:40:44;20.63;56.92
63202;DHT22;49296;48.188;11.566;2022-10-17T11:43:12;20.71;55.69
63202;DHT22;49296;48.188;11.566;2022-10-17T11:45:41;20.81;57.43
63202;DHT22;49296;48.188;11.566;2022-10-17T11:48:10;20.85;57.35
63202;DHT22;49296;48.188;11.566;2022-10-17T11:50:38;20.98;54.78
63202;DHT22;49296;48.188;11.566;2022-10-17T11:53:07;21.09;53.76
63202;DHT22;49296;48.188;11.566;2022-10-17T11:55:36;21.13;53.03
63202;DHT22;49296;48.188;11.566;2022-10-17T11:58:08;21.23;53.85
63202;DHT22;49296;48.188;11.566;2022-10-17T12:00:46;21.34;53.87
63202;DHT22;49296;48.188;11.566;2022-10-17T12:03:18;21.47;51.89
63202;DHT22;49296;48.188;11.566;2022-10-17T12:05:48;21.51;51.29
63202;DHT22;49296;48.188;11.566;2022-10-17T12:08:18;21.61;51.30
63202;DHT22;49296;48.188;11.566;2022-10-17T12:10:49;21.67;51.04
63202;DHT22;49296;48.188;11.566;2022-10-17T12:18:48;21.96;49.71
63202;DHT22;49296;48.188;11.566;2022-10-17T12:21:16;22.05;48.86
63202;DHT22;49296;48.188;11.566;2022-10-17T12:23:48;22.19;48.60
63202;DHT22;49296;48.188;11.566;2022-10-17T12:26:24;22.29;49.22
63202;DHT22;49296;48.188;11.566;2022-10-17T12:28:50;22.36;49.26
63202;DHT22;49296;48.188;11.566;2022-10-17T12:31:20;22.39;49.52
63202;DHT22;49296;48.188;11.566;2022-10-17T12:33:50;22.51;49.40
63202;DHT22;49296;48.188;11.566;2022-10-17T12:41:59;23.01;47.06
63202;DHT22;49296;48.188;11.566;2022-10-17T12:44:34;23.10;45.94
63202;DHT22;49296;48.188;11.566;2022-10-17T12:49:43;23.49;45.73
63202;DHT22;49296;48.188;11.566;2022-10-17T12:54:57;23.67;45.28
63202;DHT22;49296;48.188;11.566;2022-10-17T12:57:26;23.82;43.76
63202;DHT22;49296;48.188;11.566;2022-10-17T12:59:55;23.92;43.22
63202;DHT22;49296;48.188;11.566;2022-10-17T13:02:23;24.02;43.40
63202;DHT22;49296;48.188;11.566;2022-10-17T13:04:51;24.13;43.64
63202;DHT22;49296;48.188;11.566;2022-10-17T13:07:20;24.19;44.06
63202;DHT22;49296;48.188;11.566;2022-10-17T13:09:48;24.30;45.31
63202;DHT22;49296;48.188;11.566;2022-10-17T13:12:17;24.34;44.60
63202;DHT22;49296;48.188;11.566;2022-10-17T13:14:46;24.33;43.81
63202;DHT22;49296;48.188;11.566;2022-10-17T13:17:22;24.39;43.80
63202;DHT22;49296;48.188;11.566;2022-10-17T13:19:48;24.50;43.90
63202;DHT22;49296;48.188;11.566;2022-10-17T13:22:16;24.56;43.62
63202;DHT22;49296;48.188;11.566;2022-10-17T13:24:43;24.54;42.73
63202;DHT22;49296;48.188;11.566;2022-10-17T13:27:20;24.58;43.23
63202;DHT22;49296;48.188;11.566;2022-10-17T13:29:49;24.54;43.69
63202;DHT22;49296;48.188;11.566;2022-10-17T13:32:15;24.54;43.25
63202;DHT22;49296;48.188;11.566;2022-10-17T13:34:42;24.54;44.13
63202;DHT22;49296;48.188;11.566;2022-10-17T13:37:10;24.47;43.58
63202;DHT22;49296;48.188;11.566;2022-10-17T13:39:39;24.43;43.71
63202;DHT22;49296;48.188;11.566;2022-10-17T13:42:20;24.20;43.92
63202;DHT22;49296;48.188;11.566;2022-10-17T13:44:48;24.17;44.46
63202;DHT22;49296;48.188;11.566;2022-10-17T13:47:21;24.09;45.39
63202;DHT22;49296;48.188;11.566;2022-10-17T13:49:48;24.05;45.21
63202;DHT22;49296;48.188;11.566;2022-10-17T13:52:16;23.92;45.61
63202;DHT22;49296;48.188;11.566;2022-10-17T13:54:44;23.96;44.97
63202;DHT22;49296;48.188;11.566;2022-10-17T13:57:16;24.05;44.68
63202;DHT22;49296;48.188;11.566;2022-10-17T13:59:42;24.10;44.35
63202;DHT22;49296;48.188;11.566;2022-10-17T14:02:14;24.16;44.01
63202;DHT22;49296;48.188;11.566;2022-10-17T14:04:41;24.10;43.50
63202;DHT22;49296;48.188;11.566;2022-10-17T14:07:12;24.20;43.46
63202;DHT22;49296;48.188;11.566;2022-10-17T14:09:45;24.10;43.60
63202;DHT22;49296;48.188;11.566;2022-10-17T14:12:11;24.16;43.97
63202;DHT22;49296;48.188;11.566;2022-10-17T14:14:44;24.19;43.97
63202;DHT22;49296;48.188;11.566;2022-10-17T14:17:13;24.17;44.28
63202;DHT22;49296;48.188;11.566;2022-10-17T14:19:40;24.15;44.09
63202;DHT22;49296;48.188;11.566;2022-10-17T14:22:16;24.10;44.25
63202;DHT22;49296;48.188;11.566;2022-10-17T14:24:43;24.16;44.64
63202;DHT22;49296;48.188;11.566;2022-10-17T14:27:23;24.26;44.71
63202;DHT22;49296;48.188;11.566;2022-10-17T14:29:51;24.23;45.98
63202;DHT22;49296;48.188;11.566;2022-10-17T14:32:19;24.34;46.74
63202;DHT22;49296;48.188;11.566;2022-10-17T14:34:50;24.34;47.19
63202;DHT22;49296;48.188;11.566;2022-10-17T14:37:19;24.27;46.89
63202;DHT22;49296;48.188;11.566;2022-10-17T14:39:49;24.33;46.89
63202;DHT22;49296;48.188;11.566;2022-10-17T14:42:17;24.33;46.70
63202;DHT22;49296;48.188;11.566;2022-10-17T14:44:46;24.34;46.88
63202;DHT22;49296;48.188;11.566;2022-10-17T14:47:15;24.37;46.78
63202;DHT22;49296;48.188;11.566;2022-10-17T14:49:46;24.64;46.65
63202;DHT22;49296;48.188;11.566;2022-10-17T14:55:13;25.05;45.83
63202;DHT22;49296;48.188;11.566;2022-10-17T14:57:43;25.22;45.16
63202;DHT22;49296;48.188;11.566;2022-10-17T15:00:12;25.27;44.78
63202;DHT22;49296;48.188;11.566;2022-10-17T15:02:39;25.02;44.62
63202;DHT22;49296;48.188;11.566;2022-10-17T15:05:07;24.72;45.29
63202;DHT22;49296;48.188;11.566;2022-10-17T15:07:33;24.49;46.07
63202;DHT22;49296;48.188;11.566;2022-10-17T15:10:00;24.37;46.25
63202;DHT22;49296;48.188;11.566;2022-10-17T15:12:26;24.20;45.81
63202;DHT22;49296;48.188;11.566;2022-10-17T15:14:53;24.09;46.22
63202;DHT22;49296;48.188;11.566;2022-10-17T15:17:20;23.90;46.56
63202;DHT22;49296;48.188;11.566;2022-10-17T15:19:47;23.60;47.40
63202;DHT22;49296;48.188;11.566;2022-10-17T15:22:16;23.60;46.85
63202;DHT22;49296;48.188;11.566;2022-10-17T15:24:42;23.46;47.32
63202;DHT22;49296;48.188;11.566;2022-10-17T15:27:12;23.37;47.40
63202;DHT22;49296;48.188;11.566;2022-10-17T15:29:40;23.18;47.73
63202;DHT22;49296;48.188;11.566;2022-10-17T15:32:06;23.18;47.54
63202;DHT22;49296;48.188;11.566;2022-10-17T15:34:32;23.09;47.60
63202;DHT22;49296;48.188;11.566;2022-10-17T15:36:59;23.08;47.74
63202;DHT22;49296;48.188;11.566;2022-10-17T15:39:27;23.12;47.51
63202;DHT22;49296;48.188;11.566;2022-10-17T15:41:53;23.05;47.71
63202;DHT22;49296;48.188;11.566;2022-10-17T15:44:19;22.95;47.54
63202;DHT22;49296;48.188;11.566;2022-10-17T15:46:46;22.78;47.76
63202;DHT22;49296;48.188;11.566;2022-10-17T15:49:13;22.82;48.04
63202;DHT22;49296;48.188;11.566;2022-10-17T15:51:41;22.81;48.19